createdAt,value
2019-06-10T00:02:18.437Z,18.23
2019-06-10T00:04:50.716Z,22.55
2019-06-10T00:07:21.115Z,15.80
2019-06-10T00:09:51.286Z,17.70
2019-06-10T00:12:22.305Z,21.90
2019-06-10T00:14:52.248Z,24.35
2019-06-10T00:17:22.186Z,20.70
2019-06-10T00:19:52.205Z,20.75
2019-06-10T00:22:22.180Z,21.85
2019-06-10T00:24:52.327Z,23.00
2019-06-10T00:27:22.413Z,20.95
2019-06-10T00:29:52.459Z,21.82
2019-06-10T00:32:22.738Z,19.40
2019-06-10T00:34:52.844Z,19.10
2019-06-10T00:37:22.865Z,26.70
2019-06-10T00:39:52.951Z,26.73
2019-06-10T00:42:22.943Z,26.90
2019-06-10T00:44:52.897Z,21.93
2019-06-10T00:47:23.045Z,20.68
2019-06-10T00:49:53.050Z,23.80
2019-06-10T00:52:23.037Z,28.00
2019-06-10T00:54:53.619Z,22.40
2019-06-10T00:57:23.702Z,27.90
2019-06-10T00:59:53.655Z,32.00
2019-06-10T01:02:24.033Z,29.52
2019-06-10T01:04:54.047Z,30.35
2019-06-10T01:07:24.145Z,24.67
2019-06-10T01:09:54.129Z,28.80
2019-06-10T01:12:24.173Z,25.12
2019-06-10T01:14:54.198Z,31.68
2019-06-10T01:17:24.307Z,31.52
2019-06-10T01:19:54.760Z,29.35
2019-06-10T01:22:24.812Z,29.20
2019-06-10T01:24:54.931Z,28.25
2019-06-10T01:27:24.952Z,36.45
2019-06-10T01:29:55.047Z,30.80
2019-06-10T01:32:25.043Z,28.67
2019-06-10T01:34:55.344Z,25.40
2019-06-10T01:37:25.382Z,28.40
2019-06-10T01:39:55.465Z,24.85
2019-06-10T01:42:25.475Z,26.40
2019-06-10T01:44:55.520Z,27.45
2019-06-10T01:47:25.524Z,31.12
2019-06-10T01:49:55.530Z,27.58
2019-06-10T01:52:25.592Z,26.07
2019-06-10T01:54:55.644Z,28.83
2019-06-10T01:57:25.640Z,26.75
2019-06-10T01:59:55.756Z,26.45
2019-06-10T02:02:26.416Z,35.50
2019-06-10T02:04:57.493Z,26.02
2019-06-10T02:07:27.497Z,28.90
2019-06-10T02:09:57.561Z,25.50
2019-06-10T02:12:27.772Z,25.68
2019-06-10T02:14:57.836Z,26.57
2019-06-10T02:17:27.733Z,22.87
2019-06-10T02:19:57.863Z,24.63
2019-06-10T02:22:27.847Z,21.55
2019-06-10T02:24:57.854Z,23.52
2019-06-10T02:27:27.860Z,19.67
2019-06-10T02:29:57.976Z,19.77
2019-06-10T02:32:32.807Z,22.35
2019-06-10T02:35:13.107Z,23.80
2019-06-10T02:37:37.119Z,27.07
2019-06-10T02:40:04.490Z,23.35
2019-06-10T02:42:36.740Z,22.75
2019-06-10T02:45:08.334Z,25.10
2019-06-10T02:47:38.553Z,25.23
2019-06-10T02:50:14.279Z,20.32
2019-06-10T02:52:44.449Z,29.72
2019-06-10T02:55:15.873Z,26.25
2019-06-10T02:57:45.508Z,20.43
2019-06-10T03:00:22.589Z,23.42
2019-06-10T03:02:47.159Z,29.25
2019-06-10T03:05:19.564Z,24.32
2019-06-10T03:07:48.877Z,26.25
2019-06-10T03:10:21.152Z,29.87
2019-06-10T03:12:52.773Z,26.57
2019-06-10T03:15:25.163Z,27.80
2019-06-10T03:17:54.010Z,29.57
2019-06-10T03:20:25.866Z,28.25
2019-06-10T03:22:56.216Z,38.42
2019-06-10T03:25:27.647Z,23.90
2019-06-10T03:27:57.847Z,36.10
2019-06-10T03:30:41.098Z,28.00
2019-06-10T03:32:59.489Z,24.65
2019-06-10T03:35:29.628Z,31.33
2019-06-10T03:37:59.629Z,28.95
2019-06-10T03:40:29.639Z,29.45
2019-06-10T03:42:59.669Z,25.23
2019-06-10T03:45:29.680Z,23.52
2019-06-10T03:50:45.488Z,29.02
2019-06-10T03:53:15.618Z,25.12
2019-06-10T03:55:45.707Z,28.92
2019-06-10T03:58:15.713Z,29.27
2019-06-10T04:00:45.870Z,27.30
2019-06-10T04:03:17.270Z,26.55
2019-06-10T04:05:47.552Z,27.60
2019-06-10T04:08:17.538Z,29.80
2019-06-10T04:10:47.619Z,32.33
2019-06-10T04:13:17.604Z,29.10
2019-06-10T04:15:47.644Z,29.55
2019-06-10T04:18:19.718Z,29.27
2019-06-10T04:20:49.886Z,27.50
2019-06-10T04:23:19.844Z,35.85
2019-06-10T04:25:49.877Z,27.42
2019-06-10T04:28:19.871Z,26.97
2019-06-10T04:30:49.951Z,25.27
2019-06-10T04:33:20.903Z,29.77
2019-06-10T04:35:52.937Z,26.90
2019-06-10T04:38:24.824Z,29.07
2019-06-10T04:40:54.852Z,25.95
2019-06-10T04:43:26.034Z,27.98
2019-06-10T04:45:56.614Z,27.75
2019-06-10T04:48:28.098Z,28.38
2019-06-10T04:50:58.439Z,26.23
2019-06-10T04:53:29.437Z,28.92
2019-06-10T04:55:59.703Z,30.95
2019-06-10T04:58:30.334Z,21.65
2019-06-10T05:01:03.062Z,28.52
2019-06-10T05:03:33.106Z,26.55
2019-06-10T05:06:03.580Z,24.25
2019-06-10T05:08:34.113Z,24.67
2019-06-10T05:11:04.648Z,26.60
2019-06-10T05:13:34.761Z,28.40
2019-06-10T05:16:05.108Z,24.87
2019-06-10T05:18:35.272Z,27.32
2019-06-10T05:21:05.472Z,26.35
2019-06-10T05:23:35.479Z,26.52
2019-06-10T05:26:05.453Z,24.32
2019-06-10T05:28:35.378Z,34.83
2019-06-10T05:31:06.697Z,38.33
2019-06-10T05:33:36.705Z,27.48
2019-06-10T05:36:06.912Z,28.10
2019-06-10T05:38:36.865Z,25.62
2019-06-10T05:41:07.087Z,30.88
2019-06-10T05:43:37.057Z,26.45
2019-06-10T05:46:07.078Z,24.80
2019-06-10T05:48:37.076Z,26.15
2019-06-10T05:51:07.199Z,26.75
2019-06-10T05:53:37.315Z,24.60
2019-06-10T05:56:07.271Z,26.57
2019-06-10T05:58:37.264Z,22.05
2019-06-10T06:01:07.438Z,24.55
2019-06-10T06:03:37.420Z,25.75
2019-06-10T06:06:07.456Z,30.68
2019-06-10T06:08:37.589Z,28.75
2019-06-10T06:11:07.875Z,30.77
2019-06-10T06:13:38.066Z,25.20
2019-06-10T06:16:08.342Z,27.87
2019-06-10T06:18:38.399Z,25.48
2019-06-10T06:21:24.568Z,19.98
2019-06-10T06:23:43.556Z,25.68
2019-06-10T06:26:16.248Z,19.67
2019-06-10T06:28:44.914Z,17.98
2019-06-10T06:31:14.945Z,24.00
2019-06-10T06:33:45.121Z,22.13
2019-06-10T06:36:15.081Z,22.48
2019-06-10T06:38:45.113Z,29.70
2019-06-10T06:41:15.078Z,24.77
2019-06-10T06:43:45.608Z,19.07
2019-06-10T06:46:15.887Z,16.93
2019-06-10T06:48:45.962Z,19.92
2019-06-10T06:51:15.904Z,18.73
2019-06-10T06:53:52.018Z,24.30
2019-06-10T06:56:17.670Z,22.42
2019-06-10T06:58:47.735Z,21.27
2019-06-10T07:01:17.661Z,18.67
2019-06-10T07:03:47.662Z,20.08
2019-06-10T07:06:18.486Z,20.48
2019-06-10T07:09:03.701Z,16.65
2019-06-10T07:11:22.405Z,14.07
2019-06-10T07:13:55.008Z,13.25
2019-06-10T07:16:25.143Z,11.40
2019-06-10T07:18:55.103Z,18.92
2019-06-10T07:21:25.166Z,15.83
2019-06-10T07:23:55.198Z,16.87
2019-06-10T07:26:25.251Z,20.00
2019-06-10T07:28:55.397Z,13.20
2019-06-10T07:31:27.977Z,15.20
2019-06-10T07:33:57.160Z,17.82
2019-06-10T07:36:27.188Z,14.53
2019-06-10T07:38:57.377Z,21.95
2019-06-10T07:41:27.373Z,12.30
2019-06-10T07:43:57.342Z,21.00
2019-06-10T07:46:27.207Z,16.30
2019-06-10T07:48:57.350Z,18.95
2019-06-10T07:51:27.268Z,17.25
2019-06-10T07:53:57.412Z,18.55
2019-06-10T07:56:30.656Z,12.90
2019-06-10T07:58:59.092Z,19.25
2019-06-10T08:01:29.075Z,19.20
2019-06-10T08:03:59.084Z,11.35
2019-06-10T08:06:29.063Z,20.15
2019-06-10T08:08:58.953Z,13.20
2019-06-10T08:11:28.908Z,13.75
2019-06-10T08:13:58.895Z,16.30
2019-06-10T08:16:29.122Z,16.23
2019-06-10T08:19:21.933Z,18.17
2019-06-10T08:21:32.290Z,13.35
2019-06-10T08:24:03.531Z,23.20
2019-06-10T08:26:33.799Z,14.98
2019-06-10T08:29:04.490Z,17.00
2019-06-10T08:31:34.783Z,13.83
2019-06-10T08:34:05.348Z,17.70
2019-06-10T08:36:36.305Z,10.48
2019-06-10T08:39:07.538Z,16.52
2019-06-10T08:41:38.459Z,10.78
2019-06-10T08:44:08.783Z,14.38
2019-06-10T08:46:39.011Z,10.20
2019-06-10T08:49:09.123Z,14.73
2019-06-10T08:51:39.653Z,14.07
2019-06-10T08:54:12.636Z,14.80
2019-06-10T08:56:45.571Z,9.20
2019-06-10T08:59:13.486Z,9.85
2019-06-10T09:01:48.411Z,8.05
2019-06-10T09:04:15.168Z,19.15
2019-06-10T09:06:47.945Z,11.65
2019-06-10T09:09:16.805Z,17.20
2019-06-10T09:11:50.855Z,11.28
2019-06-10T09:14:18.552Z,9.43
2019-06-10T09:16:49.360Z,13.22
2019-06-10T09:19:22.204Z,9.35
2019-06-10T09:21:55.938Z,14.47
2019-06-10T09:24:25.179Z,14.53
2019-06-10T09:26:55.266Z,13.75
2019-06-10T09:29:25.637Z,14.83
2019-06-10T09:31:56.217Z,15.63
2019-06-10T09:34:26.619Z,12.73
2019-06-10T09:36:57.117Z,10.60
2019-06-10T09:39:27.276Z,11.60
2019-06-10T09:42:02.656Z,15.53
2019-06-10T09:44:28.996Z,16.82
2019-06-10T09:47:03.431Z,12.75
2019-06-10T09:49:33.674Z,16.75
2019-06-10T09:52:03.794Z,11.48
2019-06-10T09:54:34.358Z,13.83
2019-06-10T09:57:04.456Z,9.70
2019-06-10T09:59:34.656Z,11.57
2019-06-10T10:02:07.126Z,11.35
2019-06-10T10:04:38.035Z,9.58
2019-06-10T10:07:08.861Z,11.20
2019-06-10T10:09:44.824Z,10.30
2019-06-10T10:12:13.573Z,26.48
2019-06-10T10:14:46.053Z,10.00
2019-06-10T10:17:15.363Z,18.48
2019-06-10T10:19:48.180Z,9.93
2019-06-10T10:22:17.102Z,11.70
2019-06-10T10:24:47.578Z,13.15
2019-06-10T10:27:17.792Z,16.10
2019-06-10T10:29:49.965Z,15.18
2019-06-10T10:32:19.579Z,12.60
2019-06-10T10:34:50.265Z,12.30
2019-06-10T10:37:22.913Z,12.70
2019-06-10T10:39:56.036Z,18.20
2019-06-10T10:42:24.802Z,12.33
2019-06-10T10:44:58.795Z,16.02
2019-06-10T10:47:27.749Z,12.10
2019-06-10T10:49:57.812Z,17.42
2019-06-10T10:52:27.842Z,12.37
2019-06-10T10:54:57.898Z,13.43
2019-06-10T10:57:27.904Z,12.75
2019-06-10T10:59:57.959Z,24.90
2019-06-10T11:02:28.115Z,10.53
2019-06-10T11:04:58.215Z,13.48
2019-06-10T11:07:28.250Z,13.30
2019-06-10T11:09:58.293Z,16.77
2019-06-10T11:12:33.083Z,14.28
2019-06-10T11:15:05.155Z,13.43
2019-06-10T11:17:35.452Z,16.07
2019-06-10T11:20:06.780Z,17.87
2019-06-10T11:22:36.673Z,14.13
2019-06-10T11:25:07.171Z,16.05
2019-06-10T11:27:37.163Z,13.98
2019-06-10T11:30:08.419Z,15.50
2019-06-10T11:32:38.392Z,10.77
2019-06-10T11:35:08.942Z,13.43
2019-06-10T11:37:38.984Z,19.07
2019-06-10T11:40:09.530Z,20.23
2019-06-10T11:42:39.478Z,17.12
2019-06-10T11:45:10.442Z,14.50
2019-06-10T11:47:42.453Z,18.52
2019-06-10T11:50:34.331Z,16.80
2019-06-10T11:53:04.443Z,15.10
2019-06-10T11:55:34.459Z,15.68
2019-06-10T11:58:04.778Z,14.25
2019-06-10T12:00:36.550Z,14.63
2019-06-10T12:03:06.837Z,15.45
2019-06-10T12:05:36.987Z,10.30
2019-06-10T12:08:07.035Z,22.70
2019-06-10T12:10:37.041Z,16.35
2019-06-10T12:13:07.502Z,22.95
2019-06-10T12:16:19.859Z,15.28
2019-06-10T12:18:09.671Z,12.30
2019-06-10T12:20:42.520Z,12.45
2019-06-10T12:23:12.690Z,14.68
2019-06-10T12:25:43.687Z,16.07
2019-06-10T12:28:13.955Z,11.10
2019-06-10T12:30:44.074Z,18.02
2019-06-10T12:33:21.438Z,18.73
2019-06-10T12:35:45.712Z,14.47
2019-06-10T12:38:15.702Z,12.05
2019-06-10T12:40:45.863Z,11.85
2019-06-10T12:43:15.904Z,14.90
2019-06-10T12:45:46.020Z,17.98
2019-06-10T12:48:16.132Z,19.25
2019-06-10T12:50:46.220Z,14.07
2019-06-10T12:53:17.320Z,12.63
2019-06-10T12:55:47.489Z,16.05
2019-06-10T12:58:17.530Z,16.42
2019-06-10T13:00:48.356Z,18.92
2019-06-10T13:03:18.561Z,17.12
2019-06-10T13:05:48.653Z,11.95
2019-06-10T13:08:20.627Z,17.35
2019-06-10T13:10:50.242Z,11.15
2019-06-10T13:13:22.474Z,14.18
2019-06-10T13:15:53.150Z,14.43
2019-06-10T13:18:24.042Z,20.30
2019-06-10T13:20:54.223Z,18.12
2019-06-10T13:23:31.554Z,13.13
2019-06-10T13:26:00.184Z,18.20
2019-06-10T13:28:28.658Z,15.25
2019-06-10T13:30:59.085Z,16.37
2019-06-10T13:33:29.317Z,20.88
2019-06-10T13:35:59.838Z,19.05
2019-06-10T13:38:32.994Z,14.33
2019-06-10T13:41:04.089Z,11.60
2019-06-10T13:43:34.346Z,13.78
2019-06-10T13:46:07.377Z,11.10
2019-06-10T13:48:36.349Z,14.15
2019-06-10T13:51:10.441Z,16.52
2019-06-10T13:53:38.185Z,17.57
2019-06-10T13:56:37.345Z,15.55
2019-06-10T13:58:45.069Z,16.05
2019-06-10T14:01:20.758Z,14.18
2019-06-10T14:03:44.978Z,12.43
2019-06-10T14:06:32.591Z,16.70
2019-06-10T14:08:46.912Z,15.93
2019-06-10T14:11:18.428Z,14.38
2019-06-10T14:13:48.915Z,17.02
2019-06-10T14:16:19.014Z,20.48
2019-06-10T14:18:50.216Z,18.75
2019-06-10T14:21:23.467Z,17.17
2019-06-10T14:23:51.754Z,16.37
2019-06-10T14:26:36.610Z,23.45
2019-06-10T14:28:53.453Z,15.05
2019-06-10T14:31:39.076Z,18.10
2019-06-10T14:33:55.117Z,20.88
2019-06-10T14:36:25.157Z,18.02
2019-06-10T14:38:55.184Z,16.75
2019-06-10T14:41:26.041Z,20.90
2019-06-10T14:43:56.222Z,21.48
2019-06-10T14:46:26.485Z,13.22
2019-06-10T14:48:56.535Z,24.82
2019-06-10T14:51:26.516Z,22.07
2019-06-10T14:53:56.613Z,17.02
2019-06-10T14:56:26.532Z,23.50
2019-06-10T14:58:56.648Z,18.80
2019-06-10T15:01:26.709Z,19.50
2019-06-10T15:03:56.797Z,15.88
2019-06-10T15:06:26.771Z,19.37
2019-06-10T15:08:56.728Z,17.90
2019-06-10T15:11:27.818Z,14.20
2019-06-10T15:13:58.210Z,16.67
2019-06-10T15:16:28.729Z,21.80
2019-06-10T15:19:11.792Z,26.48
2019-06-10T15:21:32.354Z,17.50
2019-06-10T15:24:02.969Z,18.57
2019-06-10T15:26:33.169Z,17.90
2019-06-10T15:29:03.173Z,22.65
2019-06-10T15:31:33.175Z,21.42
2019-06-10T15:34:03.229Z,22.58
2019-06-10T15:36:33.235Z,23.10
2019-06-10T15:39:04.341Z,14.87
2019-06-10T15:41:34.781Z,15.53
2019-06-10T15:44:05.309Z,17.48
2019-06-10T15:46:35.433Z,22.90
2019-06-10T15:49:05.512Z,18.40
2019-06-10T15:51:35.612Z,18.30
2019-06-10T15:54:05.598Z,25.60
2019-06-10T15:56:45.602Z,23.20
2019-06-10T15:59:07.165Z,27.52
2019-06-10T16:01:37.245Z,15.98
2019-06-10T16:04:07.380Z,21.25
2019-06-10T16:06:37.309Z,25.82
2019-06-10T16:09:08.140Z,19.20
2019-06-10T16:11:40.262Z,14.30
2019-06-10T16:14:28.505Z,19.05
2019-06-10T16:17:03.245Z,19.25
2019-06-10T16:19:36.324Z,19.45
2019-06-10T16:22:12.804Z,16.25
2019-06-10T16:24:45.100Z,18.35
2019-06-10T16:27:17.920Z,23.12
2019-06-10T16:29:49.940Z,20.00
2019-06-10T16:32:21.089Z,27.48
2019-06-10T16:34:54.881Z,20.48
2019-06-10T16:37:25.806Z,20.17
2019-06-10T16:39:57.037Z,14.40
2019-06-10T16:42:28.248Z,26.17
2019-06-10T16:44:58.502Z,19.50
2019-06-10T16:47:29.826Z,24.07
2019-06-10T16:50:03.027Z,16.70
2019-06-10T16:52:34.249Z,22.65
2019-06-10T16:55:05.338Z,19.73
2019-06-10T16:57:35.390Z,20.40
2019-06-10T17:00:12.068Z,16.02
2019-06-10T17:02:42.513Z,20.60
2019-06-10T17:05:11.792Z,28.23
2019-06-10T17:07:43.485Z,26.65
2019-06-10T17:10:14.425Z,16.87
2019-06-10T17:12:46.200Z,23.22
2019-06-10T17:15:17.143Z,16.82
2019-06-10T17:17:47.240Z,21.55
2019-06-10T17:20:18.508Z,20.17
2019-06-10T17:22:48.981Z,21.37
2019-06-10T17:25:19.303Z,24.07
2019-06-10T17:27:49.374Z,22.25
2019-06-10T17:30:23.397Z,26.00
2019-06-10T17:32:53.398Z,22.77
2019-06-10T17:35:26.212Z,21.68
2019-06-10T17:37:59.162Z,24.10
2019-06-10T17:40:29.200Z,20.88
2019-06-10T17:43:02.252Z,19.10
2019-06-10T17:45:32.185Z,16.60
2019-06-10T17:48:03.130Z,23.22
2019-06-10T17:50:35.080Z,33.88
2019-06-10T17:53:05.179Z,20.12
2019-06-10T17:55:37.160Z,23.73
2019-06-10T17:58:07.217Z,23.95
2019-06-10T18:00:37.534Z,16.67
2019-06-10T18:03:07.658Z,18.82
2019-06-10T18:05:39.358Z,18.23
2019-06-10T18:08:09.462Z,24.12
2019-06-10T18:10:44.061Z,24.45
2019-06-10T18:13:16.676Z,15.80
2019-06-10T18:15:47.089Z,24.02
2019-06-10T18:18:17.498Z,26.43
2019-06-10T18:20:47.795Z,22.87
2019-06-10T18:23:24.867Z,21.97
2019-06-10T18:26:02.985Z,17.62
2019-06-10T18:28:59.883Z,18.52
2019-06-10T18:31:10.295Z,16.82
2019-06-10T18:33:47.721Z,21.23
2019-06-10T18:36:24.554Z,21.90
2019-06-10T18:38:55.291Z,19.90
2019-06-10T18:41:25.580Z,22.10
2019-06-10T18:44:02.403Z,24.47
2019-06-10T18:46:36.470Z,19.52
2019-06-10T18:49:09.066Z,25.90
2019-06-10T18:51:40.263Z,18.32
2019-06-10T18:54:16.110Z,21.68
2019-06-10T18:56:48.319Z,15.80
2019-06-10T18:59:21.260Z,20.48
2019-06-10T19:01:52.487Z,24.50
2019-06-10T19:04:22.428Z,30.45
2019-06-10T19:06:52.954Z,17.65
2019-06-10T19:09:23.129Z,20.25
2019-06-10T19:11:53.606Z,24.12
2019-06-10T19:14:23.980Z,23.90
2019-06-10T19:16:54.151Z,23.45
2019-06-10T19:19:24.176Z,25.15
2019-06-10T19:22:05.513Z,14.93
2019-06-10T19:24:35.931Z,18.40
2019-06-10T19:27:05.671Z,19.12
2019-06-10T19:29:45.299Z,18.35
2019-06-10T19:32:12.611Z,23.42
2019-06-10T19:34:48.039Z,26.57
2019-06-10T19:37:13.887Z,23.42
2019-06-10T19:39:50.302Z,23.05
2019-06-10T19:42:15.616Z,28.45
2019-06-10T19:44:45.996Z,22.77
2019-06-10T19:47:16.271Z,23.85
2019-06-10T19:49:46.302Z,18.67
2019-06-10T19:52:16.352Z,26.15
2019-06-10T19:54:46.401Z,20.10
2019-06-10T19:57:16.478Z,20.37
2019-06-10T20:00:03.691Z,29.50
2019-06-10T20:02:18.187Z,21.27
2019-06-10T20:04:48.238Z,19.48
2019-06-10T20:07:18.408Z,19.60
2019-06-10T20:09:48.534Z,25.95
2019-06-10T20:12:18.736Z,22.00
2019-06-10T20:14:48.767Z,22.95
2019-06-10T20:17:18.750Z,22.10
2019-06-10T20:19:48.899Z,21.57
2019-06-10T20:22:19.129Z,24.87
2019-06-10T20:24:49.045Z,20.23
2019-06-10T20:27:19.066Z,24.67
2019-06-10T20:30:03.750Z,22.82
2019-06-10T20:32:22.600Z,25.95
2019-06-10T20:34:52.963Z,21.23
2019-06-10T20:37:23.229Z,18.12
2019-06-10T20:39:53.923Z,17.17
2019-06-10T20:42:24.151Z,15.48
2019-06-10T20:44:54.099Z,17.10
2019-06-10T20:47:25.683Z,18.62
2019-06-10T20:49:56.236Z,23.62
2019-06-10T20:52:26.553Z,15.93
2019-06-10T20:54:56.497Z,19.05
2019-06-10T20:57:26.512Z,22.07
2019-06-10T20:59:56.552Z,18.70
2019-06-10T21:02:26.651Z,25.05
2019-06-10T21:04:57.907Z,23.65
2019-06-10T21:07:28.720Z,22.55
2019-06-10T21:10:02.743Z,26.30
2019-06-10T21:12:33.846Z,28.25
2019-06-10T21:15:06.761Z,23.35
2019-06-10T21:17:36.903Z,20.77
2019-06-10T21:20:08.212Z,20.17
2019-06-10T21:22:38.163Z,23.90
2019-06-10T21:25:08.216Z,13.10
2019-06-10T21:27:38.274Z,19.73
2019-06-10T21:30:11.614Z,23.62
2019-06-10T21:32:41.690Z,37.45
2019-06-10T21:35:12.091Z,20.32
2019-06-10T21:37:45.061Z,19.70
2019-06-10T21:40:14.394Z,19.48
2019-06-10T21:42:44.381Z,18.07
2019-06-10T21:45:14.520Z,22.98
2019-06-10T21:47:45.595Z,27.62
2019-06-10T21:50:16.191Z,20.65
2019-06-10T21:52:47.259Z,21.82
2019-06-10T21:55:17.654Z,21.10
2019-06-10T21:57:48.750Z,22.55
2019-06-10T22:00:22.336Z,15.00
2019-06-10T22:02:58.426Z,17.92
2019-06-10T22:05:25.124Z,16.97
2019-06-10T22:07:56.419Z,19.70
2019-06-10T22:10:26.718Z,28.17
2019-06-10T22:12:56.695Z,15.85
2019-06-10T22:15:26.760Z,20.80
2019-06-10T22:17:56.820Z,19.98
2019-06-10T22:20:26.830Z,26.80
2019-06-10T22:22:56.806Z,15.83
2019-06-10T22:25:26.902Z,19.85
2019-06-10T22:27:56.803Z,17.60
2019-06-10T22:30:26.822Z,18.17
2019-06-10T22:32:57.956Z,16.42
2019-06-10T22:35:28.240Z,25.90
2019-06-10T22:37:58.270Z,18.65
2019-06-10T22:40:28.340Z,22.70
2019-06-10T22:42:59.571Z,23.22
2019-06-10T22:45:29.516Z,28.62
2019-06-10T22:47:59.523Z,22.67
2019-06-10T22:50:32.110Z,23.02
2019-06-10T22:53:03.784Z,20.17
2019-06-10T22:55:33.068Z,20.27
2019-06-10T22:58:06.057Z,21.10
2019-06-10T23:00:34.816Z,38.08
2019-06-10T23:03:05.173Z,20.82
2019-06-10T23:05:35.255Z,20.97
2019-06-10T23:08:05.319Z,30.32
2019-06-10T23:10:35.466Z,26.23
2019-06-10T23:13:05.550Z,33.88
2019-06-10T23:15:35.632Z,17.55
2019-06-10T23:18:05.681Z,15.65
2019-06-10T23:20:35.792Z,19.82
2019-06-10T23:23:05.818Z,17.85
2019-06-10T23:25:35.824Z,31.27
2019-06-10T23:28:05.825Z,18.52
2019-06-10T23:30:35.926Z,21.80
2019-06-10T23:33:05.927Z,25.15
2019-06-10T23:35:35.923Z,21.10
2019-06-10T23:38:05.922Z,20.85
2019-06-10T23:40:36.003Z,24.25
2019-06-10T23:43:05.985Z,19.30
2019-06-10T23:45:36.059Z,19.23
2019-06-10T23:48:06.115Z,21.17
2019-06-10T23:50:36.592Z,18.82
2019-06-10T23:53:07.774Z,20.77
2019-06-10T23:55:38.359Z,17.17
2019-06-10T23:58:08.326Z,16.32
